createdAt,value
2023-01-27T00:01:17.954Z,33.20
2023-01-27T00:06:20.836Z,32.80
2023-01-27T00:11:42.185Z,29.03
2023-01-27T00:16:44.032Z,32.27
2023-01-27T00:22:05.254Z,31.17
2023-01-27T00:27:10.893Z,30.00
2023-01-27T00:32:30.738Z,32.17
2023-01-27T00:37:33.058Z,29.73
2023-01-27T00:42:36.843Z,26.60
2023-01-27T00:47:39.088Z,30.17
2023-01-27T00:52:41.269Z,30.37
2023-01-27T00:57:45.101Z,34.30
2023-01-27T01:02:47.242Z,31.90
2023-01-27T01:07:49.552Z,29.20
2023-01-27T01:12:53.364Z,32.83
2023-01-27T01:17:55.392Z,31.57
2023-01-27T01:22:57.962Z,30.97
2023-01-27T01:28:01.405Z,24.80
2023-01-27T01:33:03.995Z,32.70
2023-01-27T01:38:06.472Z,26.10
2023-01-27T01:43:14.729Z,27.30
2023-01-27T01:48:20.977Z,23.43
2023-01-27T01:53:27.465Z,29.23
2023-01-27T01:58:31.464Z,23.83
2023-01-27T02:03:35.538Z,26.23
2023-01-27T02:08:41.373Z,24.80
2023-01-27T02:13:45.692Z,32.20
2023-01-27T02:18:47.756Z,25.93
2023-01-27T02:24:01.197Z,27.00
2023-01-27T02:29:09.412Z,27.40
2023-01-27T02:34:16.101Z,22.70
2023-01-27T02:39:21.390Z,26.73
2023-01-27T02:44:25.352Z,25.17
2023-01-27T02:49:27.658Z,24.27
2023-01-27T02:54:31.604Z,29.33
2023-01-27T02:59:35.056Z,30.13
2023-01-27T03:04:38.987Z,23.03
2023-01-27T03:09:41.269Z,29.77
2023-01-27T03:15:02.805Z,24.73
2023-01-27T03:20:05.292Z,23.27
2023-01-27T03:25:08.842Z,25.47
2023-01-27T03:30:13.429Z,25.93
2023-01-27T03:35:16.609Z,20.57
2023-01-27T03:40:36.308Z,22.23
2023-01-27T03:45:57.780Z,22.40
2023-01-27T03:51:00.507Z,18.90
2023-01-27T03:56:02.656Z,19.10
2023-01-27T04:01:08.534Z,22.43
2023-01-27T04:06:30.281Z,24.87
2023-01-27T04:11:50.110Z,22.30
2023-01-27T04:16:55.111Z,18.80
2023-01-27T04:21:58.241Z,20.40
2023-01-27T04:27:01.960Z,22.60
2023-01-27T04:32:07.285Z,21.20
2023-01-27T04:37:10.604Z,20.50
2023-01-27T04:42:12.819Z,22.90
2023-01-27T04:47:16.659Z,22.27
2023-01-27T04:52:18.873Z,26.10
2023-01-27T04:57:21.500Z,26.17
2023-01-27T05:02:26.636Z,23.83
2023-01-27T05:07:29.994Z,28.03
2023-01-27T05:12:33.508Z,24.63
2023-01-27T05:17:37.387Z,25.27
2023-01-27T05:22:39.732Z,27.63
2023-01-27T05:27:42.025Z,33.17
2023-01-27T05:32:45.683Z,29.07
2023-01-27T05:37:47.775Z,26.57
2023-01-27T05:42:52.442Z,25.00
2023-01-27T05:47:55.945Z,22.53
2023-01-27T05:52:57.944Z,23.17
2023-01-27T05:58:00.432Z,25.53
2023-01-27T06:03:04.194Z,22.47
2023-01-27T06:08:10.567Z,25.73
2023-01-27T06:13:13.474Z,24.20
2023-01-27T06:18:19.254Z,28.03
2023-01-27T06:23:23.963Z,23.23
2023-01-27T06:28:29.563Z,25.00
2023-01-27T06:33:33.495Z,24.20
2023-01-27T06:38:36.185Z,26.37
2023-01-27T06:43:39.749Z,23.20
2023-01-27T06:48:43.440Z,20.23
2023-01-27T06:53:45.610Z,21.70
2023-01-27T06:58:47.899Z,19.80
2023-01-27T07:03:51.716Z,21.57
2023-01-27T07:08:54.835Z,18.20
2023-01-27T07:13:57.874Z,21.17
2023-01-27T07:19:01.701Z,22.07
2023-01-27T07:24:03.921Z,19.37
2023-01-27T07:29:06.077Z,25.67
2023-01-27T07:34:09.946Z,22.13
2023-01-27T07:39:12.027Z,21.03
2023-01-27T07:44:14.632Z,24.10
2023-01-27T07:49:18.300Z,24.60
2023-01-27T07:54:20.521Z,25.97
2023-01-27T07:59:22.801Z,20.73
2023-01-27T08:04:26.713Z,19.20
2023-01-27T08:09:29.303Z,19.07
2023-01-27T08:14:31.480Z,25.07
2023-01-27T08:19:35.264Z,22.77
2023-01-27T08:24:37.591Z,21.03
2023-01-27T08:29:39.731Z,19.63
2023-01-27T08:34:43.697Z,17.50
2023-01-27T08:39:45.800Z,23.53
2023-01-27T08:44:47.598Z,19.00
2023-01-27T08:49:51.426Z,18.37
2023-01-27T08:54:53.518Z,17.07
2023-01-27T08:59:55.807Z,24.27
2023-01-27T09:04:59.879Z,15.17
2023-01-27T09:10:13.800Z,15.53
2023-01-27T09:15:17.203Z,18.67
2023-01-27T09:20:22.703Z,15.07
2023-01-27T09:25:25.006Z,16.47
2023-01-27T09:30:28.727Z,15.10
2023-01-27T09:35:40.114Z,16.87
2023-01-27T09:40:56.540Z,13.97
2023-01-27T09:46:12.394Z,19.00
2023-01-27T09:51:22.680Z,16.67
2023-01-27T09:56:39.052Z,15.27
2023-01-27T10:01:50.251Z,16.43
2023-01-27T10:07:13.003Z,17.63
2023-01-27T10:12:31.954Z,19.77
2023-01-27T10:17:44.333Z,17.17
2023-01-27T10:22:59.035Z,16.77
2023-01-27T10:28:08.354Z,17.90
2023-01-27T10:33:18.773Z,14.20
2023-01-27T10:38:36.370Z,13.63
2023-01-27T10:43:50.779Z,16.83
2023-01-27T10:48:57.972Z,16.40
2023-01-27T10:54:07.154Z,16.33
2023-01-27T10:59:16.483Z,17.17
2023-01-27T11:04:29.369Z,12.17
2023-01-27T11:09:36.687Z,13.37
2023-01-27T11:14:46.663Z,17.17
2023-01-27T11:19:57.855Z,17.27
2023-01-27T11:25:09.148Z,16.80
2023-01-27T11:30:18.067Z,13.70
2023-01-27T11:35:20.613Z,14.63
2023-01-27T11:40:30.715Z,14.17
2023-01-27T11:45:37.472Z,13.67
2023-01-27T11:50:39.736Z,17.33
2023-01-27T11:55:47.817Z,15.93
2023-01-27T12:00:54.915Z,15.60
2023-01-27T12:06:01.479Z,14.07
2023-01-27T12:11:22.840Z,13.90
2023-01-27T12:16:28.671Z,8.10
2023-01-27T12:21:45.780Z,7.37
2023-01-27T12:26:49.377Z,7.83
2023-01-27T12:31:54.505Z,13.63
2023-01-27T12:36:57.803Z,9.43
2023-01-27T12:42:01.264Z,11.03
2023-01-27T12:47:05.816Z,11.30
2023-01-27T12:52:17.116Z,10.27
2023-01-27T12:57:26.199Z,6.57
2023-01-27T13:02:32.377Z,7.43
2023-01-27T13:07:43.629Z,7.80
2023-01-27T13:12:55.305Z,10.50
2023-01-27T13:17:58.404Z,8.33
2023-01-27T13:23:04.732Z,7.27
2023-01-27T13:28:09.973Z,6.30
2023-01-27T13:33:27.267Z,7.47
2023-01-27T13:38:38.062Z,7.90
2023-01-27T13:43:45.647Z,8.10
2023-01-27T13:48:53.370Z,8.27
2023-01-27T13:54:00.536Z,8.30
2023-01-27T13:59:15.709Z,8.37
2023-01-27T14:04:50.249Z,9.93
2023-01-27T14:10:06.057Z,7.37
2023-01-27T14:15:24.626Z,10.63
2023-01-27T14:20:47.177Z,10.10
2023-01-27T14:26:01.331Z,17.97
2023-01-27T14:31:10.951Z,9.47
2023-01-27T14:36:21.510Z,9.03
2023-01-27T14:41:29.001Z,9.03
2023-01-27T14:46:48.084Z,9.80
2023-01-27T14:51:56.028Z,8.10
2023-01-27T14:57:16.728Z,11.43
2023-01-27T15:02:38.407Z,11.07
2023-01-27T15:07:48.245Z,9.80
2023-01-27T15:13:23.821Z,11.43
2023-01-27T15:18:59.209Z,9.20
2023-01-27T15:24:25.821Z,10.30
2023-01-27T15:29:30.925Z,8.93
2023-01-27T15:34:34.510Z,9.23
2023-01-27T15:40:03.882Z,11.07
2023-01-27T15:45:26.297Z,8.97
2023-01-27T15:50:33.289Z,11.30
2023-01-27T15:55:38.776Z,9.00
2023-01-27T16:00:42.986Z,9.90
2023-01-27T16:05:51.324Z,10.57
2023-01-27T16:10:53.576Z,10.13
2023-01-27T16:16:30.388Z,9.67
2023-01-27T16:21:45.266Z,9.07
2023-01-27T16:26:51.726Z,10.07
2023-01-27T16:31:58.978Z,11.37
2023-01-27T16:37:15.417Z,10.87
2023-01-27T16:42:18.740Z,11.73
2023-01-27T16:47:26.615Z,10.13
2023-01-27T16:52:41.734Z,10.80
2023-01-27T16:57:47.304Z,12.93
2023-01-27T17:02:51.457Z,11.03
2023-01-27T17:08:14.997Z,10.73
2023-01-27T17:13:32.186Z,14.10
2023-01-27T17:18:51.764Z,12.77
2023-01-27T17:24:02.001Z,11.07
2023-01-27T17:29:05.246Z,15.87
2023-01-27T17:34:11.331Z,16.70
2023-01-27T17:39:26.492Z,25.17
2023-01-27T17:44:29.189Z,15.53
2023-01-27T17:49:33.383Z,23.57
2023-01-27T17:54:39.282Z,18.43
2023-01-27T17:59:45.828Z,17.87
2023-01-27T18:04:49.303Z,17.57
2023-01-27T18:09:56.902Z,19.97
2023-01-27T18:14:59.559Z,18.43
2023-01-27T18:20:02.263Z,17.97
2023-01-27T18:25:18.186Z,21.00
2023-01-27T18:30:24.630Z,23.47
2023-01-27T18:35:30.313Z,17.73
2023-01-27T18:40:36.110Z,21.30
2023-01-27T18:45:42.328Z,21.13
2023-01-27T18:50:50.128Z,22.23
2023-01-27T18:55:55.225Z,22.13
2023-01-27T19:01:00.028Z,22.53
2023-01-27T19:06:03.690Z,19.33
2023-01-27T19:11:08.372Z,24.40
2023-01-27T19:16:16.677Z,24.83
2023-01-27T19:21:19.364Z,28.07
2023-01-27T19:26:24.991Z,22.00
2023-01-27T19:31:28.588Z,21.73
2023-01-27T19:36:35.441Z,22.47
2023-01-27T19:41:40.492Z,23.57
2023-01-27T19:46:44.597Z,20.43
2023-01-27T19:51:48.435Z,21.13
2023-01-27T19:56:53.783Z,21.87
2023-01-27T20:01:59.463Z,23.73
2023-01-27T20:07:03.608Z,22.30
2023-01-27T20:12:15.871Z,21.70
2023-01-27T20:17:20.389Z,25.50
2023-01-27T20:22:23.556Z,27.83
2023-01-27T20:27:28.318Z,28.37
2023-01-27T20:32:35.087Z,22.40
2023-01-27T20:37:43.907Z,30.70
2023-01-27T20:42:54.514Z,27.10
2023-01-27T20:47:59.860Z,34.40
2023-01-27T20:53:04.947Z,38.03
2023-01-27T20:58:09.626Z,34.47
2023-01-27T21:03:12.375Z,28.50
2023-01-27T21:08:15.285Z,24.97
2023-01-27T21:13:19.695Z,27.83
2023-01-27T21:18:23.180Z,24.27
2023-01-27T21:23:27.038Z,30.70
2023-01-27T21:28:31.569Z,23.00
2023-01-27T21:33:36.370Z,23.80
2023-01-27T21:38:39.147Z,18.40
2023-01-27T21:44:01.050Z,21.30
2023-01-27T21:49:24.678Z,18.90
2023-01-27T21:55:14.542Z,19.33
2023-01-27T22:00:21.628Z,22.43
2023-01-27T22:05:24.791Z,18.47
2023-01-27T22:10:28.773Z,24.93
2023-01-27T22:15:33.530Z,25.03
2023-01-27T22:20:36.196Z,21.47
2023-01-27T22:25:38.214Z,24.43
2023-01-27T22:30:42.384Z,18.77
2023-01-27T22:35:44.692Z,19.10
2023-01-27T22:40:46.964Z,20.97
2023-01-27T22:45:51.136Z,19.03
2023-01-27T22:50:52.934Z,19.67
2023-01-27T22:56:00.123Z,24.80
2023-01-27T23:01:06.748Z,19.13
2023-01-27T23:06:10.041Z,21.73
2023-01-27T23:11:12.428Z,19.73
2023-01-27T23:16:17.704Z,20.13
2023-01-27T23:21:19.860Z,20.53
2023-01-27T23:26:22.121Z,21.27
2023-01-27T23:31:25.972Z,21.70
2023-01-27T23:36:28.961Z,20.90
2023-01-27T23:41:31.262Z,20.07
2023-01-27T23:46:34.841Z,17.57
2023-01-27T23:51:37.139Z,20.97
2023-01-27T23:56:39.671Z,17.27
